Time;durP1;ratioP1;P1;durP2;ratioP2;P2;SDS_P1;SDS_P2;PMS_P1;PMS_P2;Temp;Humidity;BMP_temperature;BMP_pressure;BME280_temperature;BME280_humidity;BME280_pressure;Samples;Min_cycle;Max_cycle;Signal;HPM_P1;HPM_P2
2021/09/03 00:00:27;;;;;;;16.93;11.47;;;16.20;93.30;;;;;;4935928;29;20221;-78
2021/09/03 00:02:53;;;;;;;13.90;10.80;;;16.20;93.30;;;;;;4936233;29;20751;-78
2021/09/03 00:05:20;;;;;;;15.40;10.40;;;16.20;93.30;;;;;;4935996;29;20417;-78
2021/09/03 00:07:47;;;;;;;15.23;11.67;;;16.20;93.30;;;;;;4937374;29;20173;-79
2021/09/03 00:10:15;;;;;;;18.23;9.97;;;16.10;93.30;;;;;;4948480;29;20414;-78
2021/09/03 00:12:42;;;;;;;11.70;9.57;;;16.10;93.30;;;;;;4942093;29;20441;-78
2021/09/03 00:15:11;;;;;;;17.53;10.47;;;16.10;93.40;;;;;;4956085;29;20413;-78
2021/09/03 00:17:37;;;;;;;12.10;10.37;;;16.00;93.30;;;;;;4949211;29;20444;-79
2021/09/03 00:20:05;;;;;;;15.67;9.97;;;16.00;93.40;;;;;;4936452;29;20424;-78
2021/09/03 00:22:30;;;;;;;12.43;9.90;;;16.00;93.50;;;;;;4936166;29;20548;-78
2021/09/03 00:24:56;;;;;;;13.60;11.17;;;15.90;93.50;;;;;;4935663;29;20450;-77
2021/09/03 00:27:22;;;;;;;16.20;11.10;;;15.90;93.60;;;;;;4936928;29;20188;-78
2021/09/03 00:29:47;;;;;;;20.33;11.10;;;15.90;93.60;;;;;;4939612;29;20249;-78
2021/09/03 00:32:13;;;;;;;15.23;11.17;;;15.90;93.60;;;;;;4938250;29;20702;-78
2021/09/03 00:34:39;;;;;;;19.17;12.60;;;15.90;93.60;;;;;;4938279;29;20173;-78
2021/09/03 00:37:04;;;;;;;17.90;13.10;;;15.90;93.60;;;;;;4938994;29;20193;-78
2021/09/03 00:39:30;;;;;;;15.50;11.23;;;15.90;93.60;;;;;;4939110;29;20170;-78
2021/09/03 00:41:56;;;;;;;13.43;10.67;;;15.90;93.60;;;;;;4938883;29;20201;-79
2021/09/03 00:44:21;;;;;;;13.83;11.40;;;15.80;93.60;;;;;;4938124;29;20501;-80
2021/09/03 00:46:47;;;;;;;11.20;9.17;;;15.80;93.80;;;;;;4937038;29;20672;-77
2021/09/03 00:49:13;;;;;;;15.67;11.37;;;15.80;93.80;;;;;;4937014;29;20174;-77
2021/09/03 00:51:39;;;;;;;20.10;11.53;;;15.80;93.90;;;;;;4936005;29;20288;-77
2021/09/03 00:54:05;;;;;;;14.40;10.73;;;15.80;93.90;;;;;;4936375;29;20257;-77
2021/09/03 00:56:31;;;;;;;19.60;12.00;;;15.80;93.90;;;;;;4936285;29;20422;-76
2021/09/03 00:58:57;;;;;;;17.63;10.20;;;15.80;93.90;;;;;;4936189;29;20422;-77
2021/09/03 01:01:23;;;;;;;15.27;11.00;;;15.70;94.00;;;;;;4936136;29;20924;-77
2021/09/03 01:03:49;;;;;;;19.07;12.07;;;15.70;94.00;;;;;;4938109;29;20170;-77
2021/09/03 01:06:14;;;;;;;15.00;11.20;;;15.70;94.00;;;;;;4940697;29;20533;-77
2021/09/03 01:08:40;;;;;;;28.13;11.30;;;15.70;94.10;;;;;;4939535;29;20290;-78
2021/09/03 01:11:06;;;;;;;21.53;12.40;;;15.70;94.30;;;;;;4941626;29;20456;-78
2021/09/03 01:13:32;;;;;;;12.90;10.50;;;15.60;94.20;;;;;;4938593;29;20230;-78
2021/09/03 01:15:57;;;;;;;15.60;11.07;;;15.60;94.40;;;;;;4939189;29;20174;-78
2021/09/03 01:18:23;;;;;;;12.50;10.43;;;15.60;94.40;;;;;;4938100;29;20645;-77
2021/09/03 01:20:48;;;;;;;16.37;10.60;;;15.60;94.40;;;;;;4935580;29;20616;-77
2021/09/03 01:23:14;;;;;;;19.17;11.17;;;15.50;94.30;;;;;;4936322;29;20194;-77
2021/09/03 01:25:41;;;;;;;14.87;10.57;;;15.50;94.40;;;;;;4936353;29;20190;-77
2021/09/03 01:28:07;;;;;;;15.73;11.70;;;15.40;94.50;;;;;;4919019;29;20256;-77
2021/09/03 01:30:32;;;;;;;15.07;11.33;;;15.40;94.50;;;;;;4934626;29;20967;-77
2021/09/03 01:32:58;;;;;;;15.77;10.60;;;15.40;94.50;;;;;;4937469;29;20434;-78
2021/09/03 01:35:24;;;;;;;15.03;11.03;;;15.40;94.50;;;;;;4937759;29;20174;-78
2021/09/03 01:37:49;;;;;;;15.10;11.70;;;15.40;94.50;;;;;;4935819;29;20344;-78
2021/09/03 01:40:15;;;;;;;15.90;11.23;;;15.30;94.50;;;;;;4936697;29;20248;-77
2021/09/03 01:42:41;;;;;;;20.80;11.57;;;15.30;94.60;;;;;;4936641;29;20212;-78
2021/09/03 01:45:08;;;;;;;17.17;11.33;;;15.30;94.50;;;;;;4941381;29;20414;-78
2021/09/03 01:47:33;;;;;;;15.43;11.07;;;15.30;94.50;;;;;;4940251;29;20181;-78
2021/09/03 01:49:59;;;;;;;15.20;10.70;;;15.30;94.60;;;;;;4938986;29;20426;-78
2021/09/03 01:52:25;;;;;;;17.20;10.17;;;15.30;94.50;;;;;;4942272;29;20687;-78
2021/09/03 01:54:50;;;;;;;15.00;9.47;;;15.20;94.40;;;;;;4938004;29;20232;-79
2021/09/03 01:57:16;;;;;;;15.80;11.67;;;15.20;94.30;;;;;;4936741;29;20594;-78
2021/09/03 01:59:42;;;;;;;18.30;11.33;;;15.20;94.40;;;;;;4935833;29;20162;-78
2021/09/03 02:02:08;;;;;;;11.90;9.80;;;15.20;94.50;;;;;;4937479;29;20702;-77
2021/09/03 02:04:33;;;;;;;13.17;10.27;;;15.20;94.60;;;;;;4935499;29;20169;-77
2021/09/03 02:06:59;;;;;;;11.80;9.30;;;15.10;94.50;;;;;;4935711;29;20420;-77
2021/09/03 02:09:25;;;;;;;17.40;11.30;;;15.10;94.50;;;;;;4935882;29;20170;-77
2021/09/03 02:11:51;;;;;;;16.63;10.97;;;15.10;94.50;;;;;;4934478;29;20324;-77
2021/09/03 02:14:16;;;;;;;13.73;9.73;;;15.00;94.50;;;;;;4934818;29;20169;-77
2021/09/03 02:16:42;;;;;;;14.10;10.87;;;15.00;94.60;;;;;;4935133;29;20552;-77
2021/09/03 02:19:08;;;;;;;15.33;10.50;;;15.00;94.80;;;;;;4934161;29;20224;-77
2021/09/03 02:21:33;;;;;;;13.40;9.73;;;15.00;94.80;;;;;;4936338;29;20209;-78
2021/09/03 02:23:59;;;;;;;13.90;10.50;;;15.00;95.00;;;;;;4933258;29;20197;-77
2021/09/03 02:26:25;;;;;;;16.43;10.70;;;15.00;95.00;;;;;;4934971;29;20201;-77
2021/09/03 02:28:50;;;;;;;17.40;11.17;;;15.00;95.00;;;;;;4935376;29;20171;-77
2021/09/03 02:31:16;;;;;;;17.67;10.70;;;15.00;95.10;;;;;;4933990;29;20201;-77
2021/09/03 02:33:42;;;;;;;15.03;9.50;;;15.00;95.00;;;;;;4956938;29;20170;-77
2021/09/03 02:36:08;;;;;;;13.30;9.90;;;15.00;95.00;;;;;;4943608;29;20184;-76
2021/09/03 02:38:34;;;;;;;16.77;10.40;;;14.90;94.80;;;;;;4952459;29;20471;-77
2021/09/03 02:40:59;;;;;;;15.20;9.70;;;14.90;94.80;;;;;;4946245;29;20190;-77
2021/09/03 02:43:25;;;;;;;16.53;10.83;;;14.90;94.80;;;;;;4938174;29;20194;-78
2021/09/03 02:45:52;;;;;;;18.83;10.67;;;14.90;94.70;;;;;;4942327;29;20631;-78
2021/09/03 02:48:18;;;;;;;13.10;10.53;;;14.90;94.80;;;;;;4921111;29;20465;-78
2021/09/03 02:50:43;;;;;;;13.33;10.30;;;14.90;94.80;;;;;;4941728;29;20812;-78
2021/09/03 02:53:09;;;;;;;13.50;10.53;;;14.90;94.80;;;;;;4940039;29;20252;-77
2021/09/03 02:55:35;;;;;;;13.50;9.77;;;14.80;94.70;;;;;;4954005;28;20173;-79
2021/09/03 02:58:01;;;;;;;12.87;9.40;;;14.80;94.70;;;;;;4958362;29;20444;-76
2021/09/03 03:00:27;;;;;;;11.70;9.00;;;14.80;94.70;;;;;;4955191;28;20414;-76
2021/09/03 03:02:53;;;;;;;13.67;9.93;;;14.80;94.60;;;;;;4939435;29;20699;-77
2021/09/03 03:05:20;;;;;;;13.90;10.87;;;14.80;94.50;;;;;;4940483;29;20180;-77
2021/09/03 03:07:47;;;;;;;12.63;9.63;;;14.80;94.50;;;;;;4934061;29;20596;-77
2021/09/03 03:10:13;;;;;;;15.00;9.80;;;14.70;94.50;;;;;;4932502;29;20646;-77
2021/09/03 03:12:38;;;;;;;13.90;9.90;;;14.70;94.60;;;;;;4933753;29;20249;-78
2021/09/03 03:15:06;;;;;;;18.90;10.40;;;14.70;94.60;;;;;;4934085;28;20237;-78
2021/09/03 03:17:32;;;;;;;12.47;9.73;;;14.70;94.60;;;;;;4936572;29;20173;-78
2021/09/03 03:19:58;;;;;;;17.63;9.97;;;14.70;94.60;;;;;;4934416;29;20516;-79
2021/09/03 03:22:23;;;;;;;14.40;11.40;;;14.70;94.60;;;;;;4933022;29;21069;-75
2021/09/03 03:24:49;;;;;;;18.00;11.17;;;14.70;94.60;;;;;;4933448;29;20165;-75
2021/09/03 03:27:15;;;;;;;14.37;10.23;;;14.60;94.50;;;;;;4933280;29;20179;-76
2021/09/03 03:29:41;;;;;;;16.60;10.97;;;14.60;94.50;;;;;;4931760;29;20197;-75
2021/09/03 03:32:07;;;;;;;18.20;10.33;;;14.60;94.50;;;;;;4933058;29;20196;-76
2021/09/03 03:34:32;;;;;;;14.93;10.00;;;14.60;94.50;;;;;;4933393;29;20413;-76
2021/09/03 03:36:59;;;;;;;14.73;10.00;;;14.50;94.50;;;;;;4932826;29;20553;-75
2021/09/03 03:39:24;;;;;;;13.90;9.70;;;14.60;94.60;;;;;;4933246;29;20182;-76
2021/09/03 03:41:50;;;;;;;13.17;9.83;;;14.50;94.60;;;;;;4932603;29;20472;-75
2021/09/03 03:44:16;;;;;;;12.73;9.80;;;14.50;94.60;;;;;;4932999;29;20187;-76
2021/09/03 03:46:41;;;;;;;15.50;10.70;;;14.50;94.60;;;;;;4933377;29;20177;-74
2021/09/03 03:49:07;;;;;;;12.50;9.53;;;14.50;94.70;;;;;;4932801;29;20181;-76
2021/09/03 03:51:32;;;;;;;15.47;9.63;;;14.50;94.70;;;;;;4932112;29;20194;-75
2021/09/03 03:53:58;;;;;;;15.90;11.10;;;14.50;94.80;;;;;;4933074;29;20172;-75
2021/09/03 03:56:24;;;;;;;16.00;10.07;;;14.50;94.70;;;;;;4932208;29;20174;-75
2021/09/03 03:58:49;;;;;;;20.03;10.53;;;14.50;94.70;;;;;;4929902;29;20537;-76
2021/09/03 04:01:15;;;;;;;13.27;10.33;;;14.50;94.70;;;;;;4922625;29;20604;-75
2021/09/03 04:03:40;;;;;;;16.03;9.80;;;14.50;94.70;;;;;;4931255;29;20176;-76
2021/09/03 04:06:06;;;;;;;12.00;9.10;;;14.40;94.60;;;;;;4936880;29;20595;-76
2021/09/03 04:08:32;;;;;;;16.27;9.87;;;14.40;94.60;;;;;;4936880;29;20264;-76
2021/09/03 04:10:57;;;;;;;14.50;10.00;;;14.40;94.50;;;;;;4936462;29;20517;-76
2021/09/03 04:13:23;;;;;;;15.93;10.87;;;14.40;94.40;;;;;;4909085;29;20208;-75
2021/09/03 04:15:49;;;;;;;14.03;9.87;;;14.40;94.30;;;;;;4918117;29;20186;-76
2021/09/03 04:18:14;;;;;;;14.20;10.10;;;14.40;94.40;;;;;;4916680;29;20612;-76
2021/09/03 04:20:40;;;;;;;13.23;9.97;;;14.40;94.30;;;;;;4915883;29;20205;-76
2021/09/03 04:23:08;;;;;;;13.23;9.50;;;14.30;94.40;;;;;;4917294;29;20714;-76
2021/09/03 04:25:34;;;;;;;14.37;9.63;;;14.30;94.40;;;;;;4920462;29;20170;-76
2021/09/03 04:28:00;;;;;;;15.73;10.57;;;14.30;94.50;;;;;;4936963;29;20422;-76
2021/09/03 04:30:25;;;;;;;15.00;10.30;;;14.30;94.50;;;;;;4936054;29;20196;-76
2021/09/03 04:32:51;;;;;;;11.33;9.50;;;14.30;94.50;;;;;;4934761;29;20198;-76
2021/09/03 04:35:17;;;;;;;14.60;10.10;;;14.20;94.70;;;;;;4936036;29;20311;-76
2021/09/03 04:37:50;;;;;;;11.93;8.60;;;14.20;94.40;;;;;;4928700;29;20218;-76
2021/09/03 04:40:18;;;;;;;13.53;9.23;;;14.20;94.40;;;;;;4922391;29;20428;-76
2021/09/03 04:42:44;;;;;;;14.37;9.10;;;14.20;94.40;;;;;;4930778;29;20494;-77
2021/09/03 04:45:11;;;;;;;12.67;9.10;;;14.20;94.40;;;;;;4917150;29;20811;-76
2021/09/03 04:47:37;;;;;;;14.67;11.33;;;14.20;94.40;;;;;;4916922;29;20786;-76
2021/09/03 04:50:05;;;;;;;16.20;10.07;;;14.20;94.50;;;;;;4926060;29;20776;-76
2021/09/03 04:52:31;;;;;;;19.77;12.23;;;14.20;94.60;;;;;;4932413;29;20450;-76
2021/09/03 04:54:56;;;;;;;17.83;10.87;;;14.20;94.60;;;;;;4926668;29;20490;-76
2021/09/03 04:57:22;;;;;;;13.33;10.10;;;14.20;94.60;;;;;;4928559;29;20255;-76
2021/09/03 04:59:48;;;;;;;15.10;10.30;;;14.20;94.60;;;;;;4922509;29;20478;-75
2021/09/03 05:02:13;;;;;;;12.87;9.27;;;14.30;94.60;;;;;;4930065;29;20269;-75
2021/09/03 05:04:39;;;;;;;18.23;9.53;;;14.30;94.50;;;;;;4924383;29;20175;-75
2021/09/03 05:07:05;;;;;;;16.70;9.50;;;14.30;94.50;;;;;;4916530;29;20159;-76
2021/09/03 05:09:31;;;;;;;14.50;8.83;;;14.30;94.50;;;;;;4920306;29;20445;-76
2021/09/03 05:11:56;;;;;;;13.20;9.50;;;14.30;94.50;;;;;;4935340;29;20192;-75
2021/09/03 05:14:22;;;;;;;15.83;10.10;;;14.30;94.50;;;;;;4934069;29;20194;-76
2021/09/03 05:16:48;;;;;;;18.57;10.57;;;14.30;94.40;;;;;;4933537;29;20224;-76
2021/09/03 05:19:14;;;;;;;13.83;9.97;;;14.30;94.40;;;;;;4916459;29;20232;-76
2021/09/03 05:21:39;;;;;;;11.70;8.97;;;14.40;94.30;;;;;;4915744;29;20217;-75
2021/09/03 05:24:05;;;;;;;13.80;10.20;;;14.40;94.20;;;;;;4922262;29;20533;-76
2021/09/03 05:26:31;;;;;;;14.93;9.47;;;14.40;94.20;;;;;;4932679;29;20525;-76
2021/09/03 05:28:57;;;;;;;12.30;8.90;;;14.40;94.20;;;;;;4933893;29;20424;-77
2021/09/03 05:31:22;;;;;;;12.77;9.27;;;14.40;94.30;;;;;;4929313;29;20668;-76
2021/09/03 05:33:48;;;;;;;14.77;8.77;;;14.50;94.20;;;;;;4914756;29;20232;-77
2021/09/03 05:36:14;;;;;;;13.50;9.40;;;14.60;94.20;;;;;;4916300;29;20181;-76
2021/09/03 05:38:39;;;;;;;12.10;8.70;;;14.60;94.10;;;;;;4916946;29;20175;-76
2021/09/03 05:41:05;;;;;;;13.10;9.50;;;14.70;94.00;;;;;;4921568;29;20478;-76
2021/09/03 05:43:31;;;;;;;11.23;9.00;;;14.70;93.90;;;;;;4932052;29;20194;-76
2021/09/03 05:45:56;;;;;;;12.30;9.63;;;14.80;93.80;;;;;;4934858;29;20212;-75
2021/09/03 05:48:22;;;;;;;14.80;7.70;;;14.80;93.70;;;;;;4934920;29;20173;-76
2021/09/03 05:50:48;;;;;;;14.23;9.07;;;14.80;93.40;;;;;;4934719;29;20184;-76
2021/09/03 05:53:14;;;;;;;13.17;8.23;;;14.90;93.40;;;;;;4958521;23;20221;-79
2021/09/03 05:55:39;;;;;;;12.23;8.00;;;14.90;93.40;;;;;;4939237;29;20166;-79
2021/09/03 05:58:05;;;;;;;13.47;8.47;;;14.90;93.30;;;;;;4939544;29;20174;-77
2021/09/03 06:00:31;;;;;;;15.63;10.33;;;14.90;93.20;;;;;;4938140;28;20167;-78
2021/09/03 06:02:58;;;;;;;13.13;9.20;;;14.80;93.10;;;;;;4937690;29;20196;-77
2021/09/03 06:05:27;;;;;;;12.80;8.43;;;14.80;93.10;;;;;;4936258;29;20422;-77
2021/09/03 06:07:52;;;;;;;18.40;8.73;;;14.90;93.20;;;;;;4920301;29;20743;-77
2021/09/03 06:10:18;;;;;;;11.50;8.03;;;15.00;93.10;;;;;;4936292;29;20461;-78
2021/09/03 06:12:44;;;;;;;14.23;9.10;;;15.00;93.00;;;;;;4935103;29;20194;-78
2021/09/03 06:15:10;;;;;;;14.20;7.93;;;15.10;92.90;;;;;;4935591;29;20170;-78
2021/09/03 06:17:36;;;;;;;13.63;8.10;;;15.20;92.70;;;;;;4934437;29;20181;-73
2021/09/03 06:20:07;;;;;;;15.97;9.83;;;15.20;92.50;;;;;;4933915;29;20422;-71
2021/09/03 06:22:33;;;;;;;15.43;9.47;;;15.20;92.10;;;;;;4933926;29;20512;-72
2021/09/03 06:24:58;;;;;;;15.47;9.00;;;15.20;92.10;;;;;;4934360;29;20418;-72
2021/09/03 06:27:24;;;;;;;13.20;8.83;;;15.20;92.10;;;;;;4935574;29;20176;-73
2021/09/03 06:29:53;;;;;;;14.27;8.50;;;15.20;92.10;;;;;;4935825;29;20173;-72
2021/09/03 06:32:22;;;;;;;12.47;9.07;;;15.30;91.90;;;;;;4934268;29;20543;-72
2021/09/03 06:34:53;;;;;;;11.40;8.93;;;15.40;91.90;;;;;;4932996;29;20424;-71
2021/09/03 06:37:19;;;;;;;16.33;9.57;;;15.40;91.80;;;;;;4934398;29;20575;-72
2021/09/03 06:39:45;;;;;;;13.90;9.20;;;15.50;91.90;;;;;;4923857;29;20437;-73
2021/09/03 06:42:11;;;;;;;12.43;9.13;;;15.50;91.80;;;;;;4932707;29;20827;-72
2021/09/03 06:44:38;;;;;;;13.90;9.27;;;15.60;91.70;;;;;;4934480;29;20504;-72
2021/09/03 06:47:05;;;;;;;14.27;8.80;;;15.70;91.50;;;;;;4934374;29;20555;-72
2021/09/03 06:49:33;;;;;;;16.27;9.10;;;15.80;91.30;;;;;;4920569;29;20419;-71
2021/09/03 06:51:59;;;;;;;13.27;9.47;;;15.90;91.10;;;;;;4913000;29;20426;-73
2021/09/03 06:54:25;;;;;;;13.40;9.37;;;15.90;90.80;;;;;;4916011;29;20439;-72
2021/09/03 06:56:51;;;;;;;15.90;9.07;;;16.00;90.70;;;;;;4913614;29;20770;-72
2021/09/03 06:59:16;;;;;;;14.80;8.10;;;16.00;90.60;;;;;;4914377;29;20482;-73
2021/09/03 07:01:42;;;;;;;16.43;9.10;;;16.10;90.50;;;;;;4913092;29;20249;-71
2021/09/03 07:04:09;;;;;;;16.97;9.60;;;16.10;90.20;;;;;;4914532;29;20320;-72
2021/09/03 07:06:34;;;;;;;14.97;8.87;;;16.20;90.20;;;;;;4914760;29;20489;-72
2021/09/03 07:09:00;;;;;;;12.70;9.47;;;16.20;90.30;;;;;;4913369;29;20170;-72
2021/09/03 07:11:26;;;;;;;13.77;8.73;;;16.20;90.40;;;;;;4914568;29;20562;-74
2021/09/03 07:13:52;;;;;;;16.20;8.90;;;16.30;90.10;;;;;;4914999;29;20198;-72
2021/09/03 07:16:17;;;;;;;15.17;10.10;;;16.40;89.50;;;;;;4914530;29;20514;-73
2021/09/03 07:18:43;;;;;;;17.70;9.47;;;16.50;89.10;;;;;;4914063;29;20174;-72
2021/09/03 07:21:08;;;;;;;16.90;8.60;;;16.60;88.10;;;;;;4913477;29;20288;-72
2021/09/03 07:23:34;;;;;;;14.57;9.10;;;16.60;88.50;;;;;;4915275;29;20187;-71
2021/09/03 07:26:02;;;;;;;14.40;9.47;;;16.80;88.80;;;;;;4919893;29;20279;-72
2021/09/03 07:28:28;;;;;;;11.37;7.73;;;17.20;88.00;;;;;;4937197;29;20437;-72
2021/09/03 07:30:54;;;;;;;12.30;9.07;;;17.60;87.30;;;;;;4935128;29;20499;-72
2021/09/03 07:33:20;;;;;;;10.60;8.20;;;18.40;83.30;;;;;;4932311;29;20462;-72
2021/09/03 07:35:46;;;;;;;11.07;7.37;;;19.40;78.40;;;;;;4916167;29;20434;-73
2021/09/03 07:38:12;;;;;;;15.80;8.50;;;19.90;74.40;;;;;;4933021;29;20177;-72
2021/09/03 07:40:39;;;;;;;15.53;8.33;;;20.00;72.30;;;;;;4931197;29;20435;-73
2021/09/03 07:43:08;;;;;;;11.50;8.23;;;19.80;72.10;;;;;;4920652;29;20445;-73
2021/09/03 07:45:35;;;;;;;12.03;8.27;;;19.70;73.30;;;;;;4938146;29;20437;-72
2021/09/03 07:48:02;;;;;;;9.33;8.37;;;19.70;73.10;;;;;;4934517;29;20413;-73
2021/09/03 07:50:28;;;;;;;16.90;8.40;;;19.60;73.20;;;;;;4934733;29;20495;-72
2021/09/03 07:52:54;;;;;;;13.07;9.23;;;19.60;73.00;;;;;;4937860;29;20530;-74
2021/09/03 07:55:22;;;;;;;11.83;7.83;;;19.80;73.30;;;;;;4937788;29;20585;-72
2021/09/03 07:57:48;;;;;;;15.67;9.20;;;20.50;71.20;;;;;;4935628;29;20177;-72
2021/09/03 08:00:16;;;;;;;12.33;8.40;;;21.80;67.60;;;;;;4930784;29;20558;-72
2021/09/03 08:02:42;;;;;;;9.90;7.30;;;23.30;61.90;;;;;;4934482;29;20463;-72
2021/09/03 08:05:11;;;;;;;11.43;7.53;;;24.70;56.80;;;;;;4935262;29;20472;-74
2021/09/03 08:07:42;;;;;;;8.17;7.33;;;26.00;53.60;;;;;;4935103;29;20221;-73
2021/09/03 08:10:12;;;;;;;8.97;7.90;;;26.70;50.70;;;;;;4931283;29;20568;-73
2021/09/03 08:12:39;;;;;;;11.07;8.40;;;27.30;48.50;;;;;;4932212;29;20460;-73
2021/09/03 08:15:06;;;;;;;10.90;7.87;;;27.70;47.10;;;;;;4933853;29;20417;-73
2021/09/03 08:17:35;;;;;;;9.27;8.13;;;28.20;46.20;;;;;;4934709;29;20414;-73
2021/09/03 08:20:03;;;;;;;11.63;8.37;;;28.60;45.20;;;;;;4914835;29;20513;-73
2021/09/03 08:22:31;;;;;;;9.63;7.50;;;29.00;44.00;;;;;;4932035;28;20477;-73
2021/09/03 08:24:57;;;;;;;12.53;7.53;;;29.40;43.80;;;;;;4928932;29;20402;-74
2021/09/03 08:27:23;;;;;;;13.27;8.03;;;29.50;43.10;;;;;;4936609;29;20541;-73
2021/09/03 08:29:49;;;;;;;10.30;8.10;;;29.80;42.50;;;;;;4926858;29;20185;-76
2021/09/03 08:32:15;;;;;;;8.40;7.50;;;30.10;40.80;;;;;;4921074;29;20481;-73
2021/09/03 08:34:41;;;;;;;8.80;7.67;;;30.30;40.60;;;;;;4922465;29;20268;-71
2021/09/03 08:37:07;;;;;;;11.77;8.90;;;30.60;40.20;;;;;;4923222;29;20417;-73
2021/09/03 08:39:33;;;;;;;10.53;8.60;;;30.60;39.80;;;;;;4928416;29;20476;-72
2021/09/03 08:41:59;;;;;;;16.77;15.20;;;30.70;39.90;;;;;;4929305;29;20249;-72
2021/09/03 08:44:31;;;;;;;18.10;11.67;;;30.90;39.70;;;;;;4932541;29;20216;-73
2021/09/03 08:46:57;;;;;;;10.57;8.63;;;31.40;39.10;;;;;;4933285;29;20405;-72
2021/09/03 08:49:23;;;;;;;9.10;7.50;;;31.80;38.10;;;;;;4935026;29;20416;-73
2021/09/03 08:51:49;;;;;;;10.30;8.03;;;32.10;37.20;;;;;;4935199;29;20169;-73
2021/09/03 08:54:15;;;;;;;9.60;8.07;;;32.50;36.40;;;;;;4927085;29;21009;-73
2021/09/03 08:56:41;;;;;;;13.37;9.07;;;32.90;36.00;;;;;;4928418;29;20180;-72
2021/09/03 08:59:06;;;;;;;11.93;8.47;;;33.20;36.10;;;;;;4922426;29;20655;-72
2021/09/03 09:01:32;;;;;;;12.03;8.47;;;33.80;34.40;;;;;;4929329;29;20292;-73
2021/09/03 09:04:16;;;;;;;10.38;8.55;;;34.30;34.20;;;;;;4935307;29;20190;-73
2021/09/03 09:07:01;;;;;;;13.68;9.13;;;34.60;32.50;;;;;;4936486;29;20252;-73
2021/09/03 09:09:49;;;;;;;8.05;7.35;;;34.70;32.90;;;;;;4935354;29;20421;-73
2021/09/03 09:12:19;;;;;;;9.00;7.85;;;34.80;32.50;;;;;;4935059;29;20187;-72
2021/09/03 09:15:07;;;;;;;11.55;8.98;;;34.80;32.50;;;;;;4936967;29;20177;-73
2021/09/03 09:17:35;;;;;;;8.85;7.90;;;35.10;32.00;;;;;;4937408;29;20174;-75
2021/09/03 09:20:07;;;;;;;8.57;7.78;;;35.40;31.70;;;;;;4934840;29;20443;-74
2021/09/03 09:22:52;;;;;;;8.45;7.75;;;35.00;32.10;;;;;;4935405;29;20472;-73
2021/09/03 09:25:28;;;;;;;7.80;7.10;;;35.00;32.50;;;;;;4919359;29;20793;-73
2021/09/03 09:27:55;;;;;;;8.93;7.20;;;35.60;31.50;;;;;;4932766;29;20220;-73
2021/09/03 09:30:26;;;;;;;9.70;8.80;;;36.00;31.00;;;;;;4918445;29;20660;-73
2021/09/03 09:33:12;;;;;;;8.48;7.68;;;36.10;30.60;;;;;;4917967;29;20197;-73
2021/09/03 09:36:00;;;;;;;8.23;7.43;;;36.40;29.90;;;;;;4935726;29;20267;-72
2021/09/03 09:38:33;;;;;;;9.13;8.02;;;36.50;30.00;;;;;;4929804;29;20200;-72
2021/09/03 09:40:59;;;;;;;8.40;7.40;;;36.80;29.70;;;;;;4923663;29;20197;-73
2021/09/03 09:43:31;;;;;;;11.55;7.90;;;36.80;29.90;;;;;;4967721;28;20316;-73
2021/09/03 09:46:13;;;;;;;9.50;7.93;;;37.00;29.50;;;;;;4976561;28;20350;-72
2021/09/03 09:48:51;;;;;;;9.23;8.35;;;36.50;29.90;;;;;;4963721;28;20555;-73
2021/09/03 09:51:29;;;;;;;10.40;8.02;;;36.90;29.80;;;;;;4970667;28;20278;-73
2021/09/03 09:53:55;;;;;;;8.30;7.35;;;36.90;29.20;;;;;;4972225;28;20231;-73
2021/09/03 09:56:22;;;;;;;8.18;7.43;;;36.90;29.60;;;;;;4973134;28;20318;-73
2021/09/03 09:58:51;;;;;;;15.20;7.30;;;36.90;29.40;;;;;;4966922;28;20203;-73
2021/09/03 10:01:20;;;;;;;8.82;8.02;;;37.50;29.00;;;;;;4966134;28;20483;-71
2021/09/03 10:03:48;;;;;;;16.25;8.55;;;37.70;28.20;;;;;;4974433;28;20275;-73
2021/09/03 10:06:18;;;;;;;27.65;24.65;;;37.60;28.30;;;;;;4968873;28;20264;-73
2021/09/03 10:08:45;;;;;;;7.60;6.90;;;37.20;28.90;;;;;;4964177;28;20184;-73
2021/09/03 10:11:18;;;;;;;9.73;7.20;;;37.10;29.20;;;;;;4968909;28;20205;-72
2021/09/03 10:13:51;;;;;;;20.63;18.73;;;37.20;28.60;;;;;;4955302;28;20626;-71
2021/09/03 10:16:17;;;;;;;6.75;6.15;;;37.50;28.50;;;;;;4966553;28;20291;-72
2021/09/03 10:18:45;;;;;;;7.38;6.68;;;37.30;28.70;;;;;;4962793;28;20188;-73
2021/09/03 10:21:11;;;;;;;6.65;6.05;;;37.40;28.40;;;;;;4962027;28;20172;-74
2021/09/03 10:24:04;;;;;;;8.50;7.80;;;37.00;28.90;;;;;;4967159;28;20255;-73
2021/09/03 10:26:33;;;;;;;7.68;6.93;;;37.20;28.00;;;;;;4961642;28;20272;-73
2021/09/03 10:29:22;;;;;;;7.07;6.38;;;37.10;28.60;;;;;;4966503;28;20267;-73
2021/09/03 10:34:43;;;;;;;8.60;7.80;;;36.90;28.00;;;;;;4964236;28;20673;-73
2021/09/03 10:37:15;;;;;;;7.90;7.18;;;36.60;28.50;;;;;;4965045;28;20248;-74
2021/09/03 10:40:07;;;;;;;8.82;6.57;;;36.50;28.10;;;;;;4964977;28;20216;-72
2021/09/03 10:42:35;;;;;;;8.27;7.53;;;35.80;29.10;;;;;;4962457;28;20188;-71
2021/09/03 10:45:11;;;;;;;9.53;7.03;;;35.10;29.80;;;;;;4960021;28;20393;-74
2021/09/03 10:47:47;;;;;;;9.83;6.87;;;34.10;31.10;;;;;;4962628;28;20428;-72
2021/09/03 10:50:27;;;;;;;6.80;5.80;;;32.90;32.10;;;;;;4960255;28;20526;-72
2021/09/03 10:53:05;;;;;;;7.43;6.23;;;31.90;33.70;;;;;;4953192;28;20464;-72
2021/09/03 10:56:09;;;;;;;9.07;6.60;;;30.90;34.70;;;;;;4951621;29;20514;-73
2021/09/03 10:58:39;;;;;;;10.33;8.47;;;30.00;36.90;;;;;;4959680;28;21042;-71
2021/09/03 11:03:44;;;;;;;8.20;6.07;;;28.40;38.90;;;;;;4957630;28;20494;-72
2021/09/03 11:06:25;;;;;;;11.07;7.03;;;27.70;40.90;;;;;;4973933;28;20424;-73
2021/09/03 11:09:04;;;;;;;8.30;5.40;;;27.40;42.40;;;;;;4974603;28;20826;-73
2021/09/03 11:11:39;;;;;;;6.43;5.33;;;27.10;42.40;;;;;;4978711;28;20517;-73
2021/09/03 11:14:07;;;;;;;12.43;5.43;;;26.70;43.30;;;;;;4982648;28;20459;-73
2021/09/03 11:16:59;;;;;;;8.93;5.87;;;26.40;43.10;;;;;;4977852;28;20515;-73
2021/09/03 11:19:34;;;;;;;8.90;6.17;;;26.20;44.20;;;;;;4979104;28;20502;-73
2021/09/03 11:22:06;;;;;;;15.33;5.63;;;26.20;44.90;;;;;;4964954;28;20432;-74
2021/09/03 11:24:38;;;;;;;8.30;5.63;;;26.00;43.80;;;;;;4962262;29;20930;-73
2021/09/03 11:27:06;;;;;;;7.30;5.30;;;25.90;44.50;;;;;;4955212;29;20427;-71
2021/09/03 11:29:41;;;;;;;9.10;5.53;;;25.80;44.90;;;;;;4954042;28;20468;-73
2021/09/03 11:32:13;;;;;;;7.47;5.40;;;25.80;45.20;;;;;;4963408;28;20528;-71
2021/09/03 11:34:59;;;;;;;7.90;5.83;;;25.70;44.20;;;;;;4974996;28;20423;-73
2021/09/03 11:37:52;;;;;;;7.67;5.57;;;25.50;44.90;;;;;;4955398;28;20416;-71
2021/09/03 11:40:24;;;;;;;5.93;4.87;;;25.50;45.70;;;;;;4959569;28;20452;-72
2021/09/03 11:42:52;;;;;;;7.53;6.30;;;25.60;46.10;;;;;;4955245;28;20543;-72
2021/09/03 11:45:20;;;;;;;6.00;4.50;;;25.60;45.80;;;;;;4972228;28;20459;-72
2021/09/03 11:47:53;;;;;;;7.43;4.83;;;25.60;46.00;;;;;;4970592;28;20432;-72
2021/09/03 11:50:37;;;;;;;6.70;5.93;;;25.60;45.60;;;;;;4971450;28;20501;-71
2021/09/03 11:53:09;;;;;;;7.63;6.63;;;25.60;45.00;;;;;;4971722;28;20463;-71
2021/09/03 11:55:40;;;;;;;6.60;4.93;;;25.50;44.10;;;;;;4971670;28;20478;-72
2021/09/03 11:58:08;;;;;;;10.53;8.40;;;25.50;44.50;;;;;;4966296;28;20957;-72
2021/09/03 12:00:42;;;;;;;7.90;5.73;;;25.50;44.50;;;;;;4952715;28;20429;-74
2021/09/03 12:03:13;;;;;;;8.90;4.73;;;25.40;43.70;;;;;;4952709;28;20425;-72
2021/09/03 12:05:41;;;;;;;5.50;4.60;;;25.40;44.00;;;;;;4964604;28;20416;-74
2021/09/03 12:08:24;;;;;;;11.43;9.07;;;25.50;44.30;;;;;;4974967;28;20771;-74
2021/09/03 12:10:56;;;;;;;9.13;6.80;;;25.50;44.30;;;;;;4972386;28;20451;-72
2021/09/03 12:13:42;;;;;;;6.83;5.00;;;25.40;43.60;;;;;;4968684;28;20442;-73
2021/09/03 12:16:20;;;;;;;5.50;4.83;;;25.40;43.10;;;;;;4971984;28;20420;-72
2021/09/03 12:18:48;;;;;;;6.83;4.90;;;25.40;43.20;;;;;;4971995;28;20411;-72
2021/09/03 12:21:26;;;;;;;6.43;4.50;;;25.40;43.70;;;;;;4972333;28;20466;-72
2021/09/03 12:23:56;;;;;;;7.53;5.37;;;25.30;43.10;;;;;;4975393;28;20573;-73
2021/09/03 12:26:35;;;;;;;6.00;5.00;;;25.20;43.80;;;;;;4972811;28;20474;-73
2021/09/03 12:29:02;;;;;;;8.57;6.13;;;25.30;44.20;;;;;;4960817;28;20429;-72
2021/09/03 12:31:31;;;;;;;6.50;5.37;;;25.30;44.10;;;;;;4958039;29;21036;-72
2021/09/03 12:34:01;;;;;;;5.33;4.37;;;25.30;44.50;;;;;;4970168;28;20518;-73
2021/09/03 12:36:33;;;;;;;7.97;4.57;;;25.30;44.60;;;;;;4973305;28;20793;-72
2021/09/03 12:39:02;;;;;;;8.13;4.90;;;25.30;44.30;;;;;;4970775;28;20482;-73
2021/09/03 12:41:37;;;;;;;5.97;5.07;;;25.20;44.30;;;;;;4968449;28;20424;-74
2021/09/03 12:44:30;;;;;;;6.40;4.90;;;25.20;45.00;;;;;;4968803;28;20478;-72
2021/09/03 12:47:03;;;;;;;8.40;4.80;;;25.20;44.10;;;;;;4960069;28;20439;-73